createdAt,value
2018-09-13T00:01:59.011Z,99.90
2018-09-13T00:04:27.451Z,99.90
2018-09-13T00:06:55.884Z,99.90
2018-09-13T00:09:24.387Z,99.90
2018-09-13T00:11:52.836Z,99.90
2018-09-13T00:14:21.272Z,99.90
2018-09-13T00:16:49.684Z,99.90
2018-09-13T00:19:18.099Z,99.90
2018-09-13T00:21:46.568Z,99.90
2018-09-13T00:24:15.062Z,99.90
2018-09-13T00:26:43.581Z,99.90
2018-09-13T00:29:12.114Z,99.90
2018-09-13T00:31:40.530Z,99.90
2018-09-13T00:34:08.961Z,99.90
2018-09-13T00:36:37.437Z,99.90
2018-09-13T00:39:07.141Z,99.90
2018-09-13T00:41:35.589Z,99.90
2018-09-13T00:44:04.077Z,99.90
2018-09-13T00:46:32.563Z,99.90
2018-09-13T00:49:00.968Z,99.90
2018-09-13T00:51:29.455Z,99.90
2018-09-13T00:53:58.000Z,99.90
2018-09-13T00:56:26.401Z,99.90
2018-09-13T00:58:55.156Z,99.90
2018-09-13T01:01:23.557Z,99.90
2018-09-13T01:03:52.051Z,99.90
2018-09-13T01:06:21.073Z,99.90
2018-09-13T01:08:49.514Z,99.90
2018-09-13T01:11:18.673Z,99.90
2018-09-13T01:13:47.144Z,99.90
2018-09-13T01:16:15.587Z,99.90
2018-09-13T01:18:44.078Z,99.90
2018-09-13T01:21:12.489Z,99.90
2018-09-13T01:23:40.932Z,99.90
2018-09-13T01:26:09.406Z,99.90
2018-09-13T01:28:37.813Z,99.90
2018-09-13T01:31:06.332Z,99.90
2018-09-13T01:33:34.770Z,99.90
2018-09-13T01:36:03.224Z,99.90
2018-09-13T01:38:31.659Z,99.90
2018-09-13T01:41:00.151Z,99.90
2018-09-13T01:43:28.592Z,99.90
2018-09-13T01:45:57.052Z,99.90
2018-09-13T01:48:25.459Z,99.90
2018-09-13T01:50:53.947Z,99.90
2018-09-13T01:53:22.446Z,99.90
2018-09-13T01:55:50.851Z,99.90
2018-09-13T01:58:19.333Z,99.90
2018-09-13T02:00:47.838Z,99.90
2018-09-13T02:03:16.277Z,99.90
2018-09-13T02:05:44.717Z,99.90
2018-09-13T02:08:13.192Z,99.90
2018-09-13T02:10:41.611Z,99.90
2018-09-13T02:13:10.058Z,99.90
2018-09-13T02:15:38.561Z,99.90
2018-09-13T02:18:07.077Z,99.90
2018-09-13T02:20:35.581Z,99.90
2018-09-13T02:23:04.064Z,99.90
2018-09-13T02:25:32.479Z,99.90
2018-09-13T02:28:00.987Z,99.90
2018-09-13T02:30:29.511Z,99.90
2018-09-13T02:32:57.943Z,99.90
2018-09-13T02:35:26.372Z,99.90
2018-09-13T02:37:54.821Z,99.90
2018-09-13T02:40:24.056Z,99.90
2018-09-13T02:42:52.526Z,99.90
2018-09-13T02:45:20.946Z,99.90
2018-09-13T02:47:49.361Z,99.90
2018-09-13T02:50:17.829Z,99.90
2018-09-13T02:52:46.272Z,99.90
2018-09-13T02:55:14.660Z,99.90
2018-09-13T02:57:43.109Z,99.90
2018-09-13T03:00:11.559Z,99.90
2018-09-13T03:02:39.976Z,99.90
2018-09-13T03:05:08.421Z,99.90
2018-09-13T03:07:36.900Z,99.90
2018-09-13T03:10:05.376Z,99.90
2018-09-13T03:12:33.888Z,99.90
2018-09-13T03:15:02.428Z,99.90
2018-09-13T03:17:30.842Z,99.90
2018-09-13T03:19:59.257Z,99.90
2018-09-13T03:22:27.673Z,99.90
2018-09-13T03:24:56.104Z,99.90
2018-09-13T03:27:24.608Z,99.90
2018-09-13T03:29:53.153Z,99.90
2018-09-13T03:32:21.645Z,99.90
2018-09-13T03:34:50.082Z,99.90
2018-09-13T03:37:18.602Z,99.90
2018-09-13T03:39:47.042Z,99.90
2018-09-13T03:42:15.502Z,99.90
2018-09-13T03:44:43.944Z,99.90
2018-09-13T03:47:12.372Z,99.90
2018-09-13T03:49:40.777Z,99.90
2018-09-13T03:52:09.227Z,99.90
2018-09-13T03:54:37.629Z,99.90
2018-09-13T03:57:06.111Z,99.90
2018-09-13T03:59:34.540Z,99.90
2018-09-13T04:02:02.988Z,99.90
2018-09-13T04:04:32.120Z,99.90
2018-09-13T04:07:00.578Z,99.90
2018-09-13T04:09:29.009Z,99.90
2018-09-13T04:11:57.425Z,99.90
2018-09-13T04:14:25.870Z,99.90
2018-09-13T04:16:54.303Z,99.90
2018-09-13T04:19:22.751Z,99.90
2018-09-13T04:21:51.164Z,99.90
2018-09-13T04:24:19.609Z,99.90
2018-09-13T04:26:48.031Z,99.90
2018-09-13T04:29:16.472Z,99.90
2018-09-13T04:31:45.016Z,99.90
2018-09-13T04:34:13.504Z,99.90
2018-09-13T04:36:41.906Z,99.90
2018-09-13T04:39:10.407Z,99.90
2018-09-13T04:41:38.803Z,99.90
2018-09-13T04:44:07.236Z,99.90
2018-09-13T04:46:35.754Z,99.90
2018-09-13T04:49:04.293Z,99.90
2018-09-13T04:51:32.706Z,99.90
2018-09-13T04:54:01.161Z,99.90
2018-09-13T04:56:29.678Z,99.90
2018-09-13T04:58:58.156Z,99.90
2018-09-13T05:01:26.573Z,99.90
2018-09-13T05:03:55.019Z,99.90
2018-09-13T05:06:23.449Z,99.90
2018-09-13T05:08:51.852Z,99.90
2018-09-13T05:11:20.377Z,99.90
2018-09-13T05:13:48.833Z,99.90
2018-09-13T05:16:17.389Z,99.90
2018-09-13T05:18:46.188Z,99.90
2018-09-13T05:21:14.624Z,99.90
2018-09-13T05:23:43.122Z,99.90
2018-09-13T05:26:11.556Z,99.90
2018-09-13T05:28:39.988Z,99.90
2018-09-13T05:31:08.746Z,99.90
2018-09-13T05:33:37.216Z,99.90
2018-09-13T05:36:05.677Z,99.90
2018-09-13T05:38:34.168Z,99.90
2018-09-13T05:41:02.637Z,99.90
2018-09-13T05:43:31.045Z,99.90
2018-09-13T05:45:59.508Z,99.90
2018-09-13T05:48:27.953Z,99.90
2018-09-13T05:50:56.357Z,99.90
2018-09-13T05:53:24.846Z,99.90
2018-09-13T05:55:53.283Z,99.90
2018-09-13T05:58:21.856Z,99.90
2018-09-13T06:00:50.816Z,99.90
2018-09-13T06:03:19.211Z,99.90
2018-09-13T06:05:48.320Z,99.90
2018-09-13T06:08:16.769Z,99.90
2018-09-13T06:10:45.282Z,99.90
2018-09-13T06:13:13.848Z,99.90
2018-09-13T06:15:42.748Z,99.90
2018-09-13T06:18:11.223Z,99.90
2018-09-13T06:20:39.676Z,99.90
2018-09-13T06:23:08.132Z,99.90
2018-09-13T06:25:36.696Z,99.90
2018-09-13T06:28:05.697Z,99.90
2018-09-13T06:30:34.192Z,99.90
2018-09-13T06:33:02.705Z,99.90
2018-09-13T06:35:31.147Z,99.90
2018-09-13T06:37:59.572Z,99.90
2018-09-13T06:40:28.679Z,99.90
2018-09-13T06:42:57.118Z,99.90
2018-09-13T06:45:25.601Z,99.90
2018-09-13T06:47:54.132Z,99.90
2018-09-13T06:50:22.574Z,99.90
2018-09-13T06:52:51.033Z,99.90
2018-09-13T06:55:19.486Z,99.90
2018-09-13T06:57:47.923Z,99.90
2018-09-13T07:00:16.418Z,99.90
2018-09-13T07:02:45.468Z,99.90
2018-09-13T07:05:13.943Z,99.90
2018-09-13T07:07:42.416Z,99.90
2018-09-13T07:10:11.216Z,99.90
2018-09-13T07:12:39.628Z,99.90
2018-09-13T07:15:08.091Z,99.90
2018-09-13T07:17:36.541Z,99.90
2018-09-13T07:20:05.516Z,99.90
2018-09-13T07:22:33.990Z,99.90
2018-09-13T07:25:02.466Z,99.90
2018-09-13T07:27:30.932Z,99.90
2018-09-13T07:29:59.354Z,99.90
2018-09-13T07:32:27.868Z,99.90
2018-09-13T07:34:56.321Z,99.70
2018-09-13T07:37:24.769Z,99.90
2018-09-13T07:39:53.289Z,99.60
2018-09-13T07:42:21.754Z,99.50
2018-09-13T07:44:50.262Z,99.50
2018-09-13T07:47:18.708Z,99.10
2018-09-13T07:49:47.339Z,99.50
2018-09-13T07:52:15.711Z,99.10
2018-09-13T07:54:44.167Z,99.10
2018-09-13T07:57:12.623Z,98.90
2018-09-13T07:59:41.526Z,98.40
2018-09-13T08:02:10.568Z,98.60
2018-09-13T08:04:39.000Z,98.90
2018-09-13T08:07:07.446Z,98.80
2018-09-13T08:09:35.875Z,97.70
2018-09-13T08:12:04.487Z,98.40
2018-09-13T08:14:32.816Z,98.00
2018-09-13T08:17:01.240Z,98.30
2018-09-13T08:19:29.700Z,97.70
2018-09-13T08:21:58.115Z,97.70
2018-09-13T08:24:26.515Z,97.40
2018-09-13T08:26:54.997Z,98.00
2018-09-13T08:29:23.382Z,97.90
2018-09-13T08:31:51.836Z,98.10
2018-09-13T08:34:20.325Z,97.30
2018-09-13T08:36:48.787Z,97.30
2018-09-13T08:39:17.324Z,96.70
2018-09-13T08:41:45.749Z,96.80
2018-09-13T08:44:14.174Z,95.80
2018-09-13T08:46:42.567Z,95.10
2018-09-13T08:49:11.084Z,94.50
2018-09-13T08:51:39.512Z,94.00
2018-09-13T08:54:08.014Z,94.30
2018-09-13T08:56:36.442Z,93.60
2018-09-13T08:59:04.925Z,94.10
2018-09-13T09:01:33.355Z,91.90
2018-09-13T09:04:01.783Z,91.80
2018-09-13T09:06:30.281Z,90.80
2018-09-13T09:08:58.699Z,92.00
2018-09-13T09:11:27.153Z,90.50
2018-09-13T09:13:55.590Z,90.00
2018-09-13T09:16:24.081Z,91.20
2018-09-13T09:18:52.516Z,90.60
2018-09-13T09:21:20.987Z,88.30
2018-09-13T09:23:49.487Z,86.90
2018-09-13T09:26:17.940Z,86.60
2018-09-13T09:28:47.143Z,86.70
2018-09-13T09:31:15.592Z,81.90
2018-09-13T09:33:44.016Z,81.30
2018-09-13T09:36:12.494Z,82.00
2018-09-13T09:38:40.947Z,77.70
2018-09-13T09:41:09.415Z,78.70
2018-09-13T09:43:37.915Z,80.40
2018-09-13T09:46:06.460Z,81.60
2018-09-13T09:48:35.086Z,78.20
2018-09-13T09:51:04.111Z,78.40
2018-09-13T09:53:32.589Z,77.90
2018-09-13T09:56:01.036Z,72.80
2018-09-13T09:58:29.478Z,76.60
2018-09-13T10:01:03.080Z,75.80
2018-09-13T10:03:31.564Z,76.50
2018-09-13T10:06:00.017Z,77.40
2018-09-13T10:08:28.489Z,76.10
2018-09-13T10:10:56.895Z,74.10
2018-09-13T10:13:25.330Z,76.00
2018-09-13T10:15:59.263Z,78.70
2018-09-13T10:18:33.298Z,78.00
2018-09-13T10:21:06.953Z,77.50
2018-09-13T10:23:40.701Z,74.90
2018-09-13T10:26:14.430Z,74.00
2018-09-13T10:28:48.196Z,74.00
2018-09-13T10:31:22.016Z,73.20
2018-09-13T10:33:55.612Z,74.30
2018-09-13T10:36:29.253Z,72.20
2018-09-13T10:39:03.267Z,71.90
2018-09-13T10:41:37.116Z,70.40
2018-09-13T10:44:10.898Z,71.60
2018-09-13T10:46:39.350Z,70.30
2018-09-13T10:49:13.158Z,69.50
2018-09-13T10:51:46.793Z,70.50
2018-09-13T10:54:24.494Z,65.60
2018-09-13T10:56:53.088Z,67.30
2018-09-13T10:59:21.639Z,68.60
2018-09-13T11:01:50.088Z,65.50
2018-09-13T11:04:18.575Z,63.90
2018-09-13T11:06:46.943Z,65.80
2018-09-13T11:09:15.431Z,68.90
2018-09-13T11:11:44.170Z,65.80
2018-09-13T11:14:24.980Z,66.00
2018-09-13T11:16:53.461Z,68.10
2018-09-13T11:19:22.005Z,67.10
2018-09-13T11:21:50.596Z,65.30
2018-09-13T11:24:19.730Z,63.90
2018-09-13T11:26:48.881Z,63.30
2018-09-13T11:29:17.448Z,61.90
2018-09-13T11:31:45.958Z,60.40
2018-09-13T11:34:14.398Z,60.70
2018-09-13T11:36:42.868Z,63.80
2018-09-13T11:39:12.444Z,62.20
2018-09-13T11:41:40.864Z,62.40
2018-09-13T11:44:09.399Z,59.30
2018-09-13T11:46:38.163Z,62.10
2018-09-13T11:49:06.736Z,61.10
2018-09-13T11:51:35.209Z,62.30
2018-09-13T11:54:03.756Z,62.60
2018-09-13T11:56:32.161Z,60.70
2018-09-13T11:59:00.728Z,57.80
2018-09-13T12:01:29.144Z,59.50
2018-09-13T12:03:57.615Z,56.90
2018-09-13T12:06:26.090Z,58.30
2018-09-13T12:08:54.554Z,56.10
2018-09-13T12:11:22.968Z,58.30
2018-09-13T12:13:51.434Z,56.60
2018-09-13T12:16:20.039Z,57.20
2018-09-13T12:18:48.597Z,55.10
2018-09-13T12:21:17.024Z,56.30
2018-09-13T12:23:45.460Z,54.90
2018-09-13T12:26:13.872Z,54.40
2018-09-13T12:28:42.352Z,53.40
2018-09-13T12:31:10.780Z,53.30
2018-09-13T12:33:39.292Z,53.00
2018-09-13T12:36:07.733Z,53.60
2018-09-13T12:38:36.153Z,53.50
2018-09-13T12:41:05.173Z,54.50
2018-09-13T12:43:33.690Z,54.60
2018-09-13T12:46:02.134Z,54.10
2018-09-13T12:48:30.554Z,53.60
2018-09-13T12:50:59.033Z,51.70
2018-09-13T12:53:27.444Z,54.90
2018-09-13T12:55:56.375Z,55.10
2018-09-13T12:58:26.101Z,53.80
2018-09-13T13:00:54.698Z,55.90
2018-09-13T13:03:23.259Z,54.90
2018-09-13T13:05:51.758Z,53.40
2018-09-13T13:08:20.240Z,52.60
2018-09-13T13:10:48.725Z,52.70
2018-09-13T13:13:17.148Z,52.40
2018-09-13T13:15:45.566Z,52.00
2018-09-13T13:18:14.033Z,52.50
2018-09-13T13:20:42.508Z,52.90
2018-09-13T13:23:10.968Z,53.40
2018-09-13T13:25:39.438Z,49.80
2018-09-13T13:28:07.931Z,50.00
2018-09-13T13:30:36.364Z,51.30
2018-09-13T13:33:04.894Z,52.00
2018-09-13T13:35:33.326Z,50.40
2018-09-13T13:38:01.728Z,48.10
2018-09-13T13:40:30.139Z,47.30
2018-09-13T13:42:58.602Z,48.10
2018-09-13T13:45:27.087Z,47.90
2018-09-13T13:47:55.660Z,48.40
2018-09-13T13:50:24.113Z,48.30
2018-09-13T13:52:52.552Z,49.80
2018-09-13T13:55:21.013Z,49.20
2018-09-13T13:57:49.480Z,47.40
2018-09-13T14:00:17.920Z,47.70
2018-09-13T14:02:46.356Z,47.40
2018-09-13T14:05:14.767Z,49.00
2018-09-13T14:07:43.314Z,48.30
2018-09-13T14:10:11.864Z,48.90
2018-09-13T14:12:40.344Z,47.90
2018-09-13T14:15:08.835Z,47.90
2018-09-13T14:17:37.292Z,48.00
2018-09-13T14:20:05.772Z,48.10
2018-09-13T14:22:34.266Z,50.00
2018-09-13T14:25:02.863Z,48.30
2018-09-13T14:27:31.309Z,49.90
2018-09-13T14:29:59.738Z,49.50
2018-09-13T14:32:28.215Z,51.40
2018-09-13T14:34:56.697Z,50.80
2018-09-13T14:37:25.613Z,48.50
2018-09-13T14:39:54.104Z,49.40
2018-09-13T14:42:22.615Z,49.50
2018-09-13T14:44:57.733Z,49.40
2018-09-13T14:47:26.225Z,49.00
2018-09-13T14:49:54.699Z,49.30
2018-09-13T14:52:23.143Z,50.00
2018-09-13T14:54:52.545Z,49.50
2018-09-13T14:57:21.074Z,50.50
2018-09-13T14:59:49.472Z,50.50
2018-09-13T15:02:18.038Z,50.70
2018-09-13T15:04:46.603Z,49.00
2018-09-13T15:07:15.841Z,47.90
2018-09-13T15:09:44.311Z,49.40
2018-09-13T15:12:12.880Z,50.00
2018-09-13T15:14:41.311Z,50.20
2018-09-13T15:17:10.156Z,49.80
2018-09-13T15:19:38.572Z,49.10
2018-09-13T15:22:07.019Z,49.30
2018-09-13T15:24:35.693Z,49.20
2018-09-13T15:27:04.041Z,49.30
2018-09-13T15:29:32.635Z,50.20
2018-09-13T15:32:01.667Z,49.70
2018-09-13T15:34:30.085Z,50.00
2018-09-13T15:36:58.683Z,49.30
2018-09-13T15:39:27.159Z,49.70
2018-09-13T15:41:55.577Z,49.90
2018-09-13T15:44:24.004Z,48.60
2018-09-13T15:46:52.472Z,50.30
2018-09-13T15:49:20.937Z,50.20
2018-09-13T15:51:49.384Z,50.50
2018-09-13T15:54:17.845Z,51.10
2018-09-13T15:56:46.284Z,52.00
2018-09-13T15:59:14.713Z,52.60
2018-09-13T16:01:43.210Z,53.20
2018-09-13T16:04:11.654Z,53.20
2018-09-13T16:06:40.096Z,53.30
2018-09-13T16:09:09.182Z,52.50
2018-09-13T16:11:37.864Z,52.40
2018-09-13T16:14:06.393Z,52.90
2018-09-13T16:16:35.229Z,53.50
2018-09-13T16:19:03.798Z,53.40
2018-09-13T16:21:32.215Z,53.70
2018-09-13T16:24:00.702Z,54.00
2018-09-13T16:26:29.186Z,53.50
2018-09-13T16:28:57.785Z,54.70
2018-09-13T16:31:27.220Z,55.00
2018-09-13T16:33:55.769Z,54.60
2018-09-13T16:36:26.958Z,54.90
2018-09-13T16:39:00.584Z,55.00
2018-09-13T16:41:38.843Z,55.90
2018-09-13T16:44:07.420Z,57.60
2018-09-13T16:46:42.476Z,55.80
2018-09-13T16:49:10.889Z,57.30
2018-09-13T16:51:39.635Z,56.00
2018-09-13T16:54:08.190Z,59.80
2018-09-13T16:56:36.699Z,63.60
2018-09-13T16:59:05.380Z,61.60
2018-09-13T17:01:34.176Z,58.60
2018-09-13T17:04:06.996Z,61.00
2018-09-13T17:06:36.591Z,58.30
2018-09-13T17:09:08.424Z,58.90
2018-09-13T17:11:36.881Z,61.50
2018-09-13T17:14:05.349Z,59.50
2018-09-13T17:16:34.184Z,60.70
2018-09-13T17:19:02.620Z,62.00
2018-09-13T17:21:31.062Z,60.60
2018-09-13T17:23:59.507Z,61.70
2018-09-13T17:26:27.921Z,63.00
2018-09-13T17:28:56.356Z,61.70
2018-09-13T17:31:24.905Z,61.20
2018-09-13T17:33:53.603Z,63.80
2018-09-13T17:36:21.919Z,64.90
2018-09-13T17:38:50.389Z,67.00
2018-09-13T17:41:18.884Z,71.10
2018-09-13T17:43:47.738Z,70.60
2018-09-13T17:46:16.258Z,70.80
2018-09-13T17:48:44.679Z,68.50
2018-09-13T17:51:13.101Z,67.50
2018-09-13T17:53:41.574Z,66.20
2018-09-13T17:56:10.097Z,66.90
2018-09-13T17:58:38.549Z,65.50
2018-09-13T18:01:07.037Z,68.40
2018-09-13T18:03:35.639Z,70.10
2018-09-13T18:06:04.053Z,70.50
2018-09-13T18:08:32.520Z,70.10
2018-09-13T18:11:01.693Z,71.30
2018-09-13T18:13:30.166Z,70.70
2018-09-13T18:15:58.621Z,73.50
2018-09-13T18:18:27.076Z,74.20
2018-09-13T18:20:55.557Z,74.10
2018-09-13T18:23:24.112Z,75.50
2018-09-13T18:25:53.447Z,75.70
2018-09-13T18:28:22.049Z,75.70
2018-09-13T18:30:51.131Z,75.40
2018-09-13T18:33:19.810Z,75.40
2018-09-13T18:35:48.259Z,75.90
2018-09-13T18:38:17.607Z,77.10
2018-09-13T18:40:46.025Z,78.60
2018-09-13T18:43:14.513Z,78.50
2018-09-13T18:45:43.191Z,79.40
2018-09-13T18:48:12.072Z,78.90
2018-09-13T18:50:40.527Z,79.00
2018-09-13T18:53:10.000Z,80.00
2018-09-13T18:55:38.494Z,79.10
2018-09-13T18:58:08.100Z,80.50
2018-09-13T19:00:36.546Z,79.50
2018-09-13T19:03:04.995Z,81.20
2018-09-13T19:05:33.528Z,81.60
2018-09-13T19:08:01.988Z,80.00
2018-09-13T19:10:30.528Z,81.20
2018-09-13T19:12:59.032Z,81.40
2018-09-13T19:15:28.099Z,81.80
2018-09-13T19:17:56.514Z,81.30
2018-09-13T19:20:25.626Z,82.50
2018-09-13T19:22:54.817Z,82.10
2018-09-13T19:25:24.409Z,82.50
2018-09-13T19:27:52.884Z,82.60
2018-09-13T19:30:21.523Z,83.20
2018-09-13T19:32:49.935Z,83.40
2018-09-13T19:35:18.371Z,83.90
2018-09-13T19:37:46.783Z,82.80
2018-09-13T19:40:15.243Z,83.10
2018-09-13T19:42:43.731Z,83.80
2018-09-13T19:45:12.170Z,83.60
2018-09-13T19:47:40.647Z,83.60
2018-09-13T19:50:09.178Z,83.20
2018-09-13T19:52:37.634Z,82.80
2018-09-13T19:55:06.657Z,82.30
2018-09-13T19:57:35.100Z,83.40
2018-09-13T20:00:03.564Z,84.10
2018-09-13T20:02:32.062Z,84.00
2018-09-13T20:05:00.644Z,84.00
2018-09-13T20:07:29.044Z,83.70
2018-09-13T20:09:57.517Z,83.60
2018-09-13T20:12:25.999Z,84.90
2018-09-13T20:14:55.090Z,85.40
2018-09-13T20:17:23.588Z,85.90
2018-09-13T20:19:52.105Z,86.40
2018-09-13T20:22:20.521Z,87.00
2018-09-13T20:24:49.017Z,87.20
2018-09-13T20:27:17.493Z,87.70
2018-09-13T20:29:46.005Z,86.70
2018-09-13T20:32:14.442Z,87.70
2018-09-13T20:34:42.897Z,88.00
2018-09-13T20:37:11.456Z,88.00
2018-09-13T20:39:44.084Z,88.40
2018-09-13T20:42:12.552Z,87.90
2018-09-13T20:44:41.056Z,88.60
2018-09-13T20:47:09.639Z,89.10
2018-09-13T20:49:38.159Z,89.20
2018-09-13T20:52:06.695Z,89.70
2018-09-13T20:54:35.119Z,90.00
2018-09-13T20:57:03.653Z,90.00
2018-09-13T20:59:32.401Z,89.90
2018-09-13T21:02:00.903Z,90.00
2018-09-13T21:04:29.518Z,90.10
2018-09-13T21:06:57.973Z,90.40
2018-09-13T21:09:26.448Z,90.40
2018-09-13T21:11:54.894Z,90.40
2018-09-13T21:14:23.325Z,90.60
2018-09-13T21:16:51.803Z,90.60
2018-09-13T21:19:20.180Z,90.70
2018-09-13T21:21:48.640Z,91.20
2018-09-13T21:24:17.257Z,90.90
2018-09-13T21:26:45.922Z,91.30
2018-09-13T21:29:14.367Z,90.90
2018-09-13T21:31:43.641Z,91.30
2018-09-13T21:34:12.089Z,91.70
2018-09-13T21:36:40.548Z,91.60
2018-09-13T21:39:10.104Z,91.80
2018-09-13T21:41:38.560Z,91.50
2018-09-13T21:44:07.261Z,91.90
2018-09-13T21:46:35.683Z,91.80
2018-09-13T21:49:04.124Z,92.00
2018-09-13T21:51:32.572Z,91.90
2018-09-13T21:54:01.028Z,91.80
2018-09-13T21:56:29.504Z,92.20
2018-09-13T21:58:58.020Z,91.90
2018-09-13T22:01:26.400Z,92.00
2018-09-13T22:03:54.822Z,92.40
2018-09-13T22:06:23.348Z,92.70
2018-09-13T22:08:51.800Z,92.30
2018-09-13T22:11:20.305Z,92.10
2018-09-13T22:13:48.775Z,92.20
2018-09-13T22:16:17.288Z,92.50
2018-09-13T22:18:45.769Z,92.60
2018-09-13T22:21:14.193Z,93.00
2018-09-13T22:23:42.605Z,92.80
2018-09-13T22:26:11.196Z,93.00
2018-09-13T22:28:39.672Z,93.00
2018-09-13T22:31:08.093Z,93.00
2018-09-13T22:33:36.504Z,92.90
2018-09-13T22:36:05.043Z,93.00
2018-09-13T22:38:33.581Z,93.10
2018-09-13T22:41:02.030Z,93.20
2018-09-13T22:43:35.851Z,93.30
2018-09-13T22:46:04.343Z,93.30
2018-09-13T22:48:32.864Z,93.40
2018-09-13T22:51:01.336Z,93.20
2018-09-13T22:53:29.873Z,93.60
2018-09-13T22:55:58.291Z,93.60
2018-09-13T22:58:26.698Z,93.80
2018-09-13T23:00:57.348Z,93.90
2018-09-13T23:03:26.061Z,93.80
2018-09-13T23:05:54.567Z,93.90
2018-09-13T23:08:23.000Z,93.80
2018-09-13T23:10:51.499Z,94.00
2018-09-13T23:13:20.020Z,94.10
2018-09-13T23:15:48.548Z,94.20
2018-09-13T23:18:17.050Z,94.30
2018-09-13T23:20:45.466Z,94.20
2018-09-13T23:23:13.946Z,94.20
2018-09-13T23:25:42.345Z,94.40
2018-09-13T23:28:10.776Z,94.30
2018-09-13T23:30:39.296Z,94.40
2018-09-13T23:33:07.871Z,94.40
2018-09-13T23:35:36.335Z,94.50
2018-09-13T23:38:04.762Z,94.40
2018-09-13T23:40:33.367Z,94.40
2018-09-13T23:43:01.839Z,94.40
2018-09-13T23:45:30.346Z,94.50
2018-09-13T23:47:59.344Z,94.40
2018-09-13T23:50:27.797Z,94.40
2018-09-13T23:52:56.315Z,94.40
2018-09-13T23:55:24.788Z,94.60
2018-09-13T23:57:53.202Z,94.60
